sensor_id;sensor_type;location;lat;lon;timestamp;pressure;altitude;pressure_sealevel;temperature;humidity
69980;BME280;57318;56.232;43.944;2023-02-19T00:01:15;98256.84;;;-11.24;73.29
69980;BME280;57318;56.232;43.944;2023-02-19T00:03:42;98259.38;;;-11.22;73.11
69980;BME280;57318;56.232;43.944;2023-02-19T00:06:09;98257.72;;;-11.27;73.40
69980;BME280;57318;56.232;43.944;2023-02-19T00:08:37;98257.72;;;-11.27;73.89
69980;BME280;57318;56.232;43.944;2023-02-19T00:11:09;98263.66;;;-11.23;73.83
69980;BME280;57318;56.232;43.944;2023-02-19T00:13:37;98267.06;;;-11.22;73.76
69980;BME280;57318;56.232;43.944;2023-02-19T00:16:20;98264.44;;;-11.16;73.29
69980;BME280;57318;56.232;43.944;2023-02-19T00:18:47;98255.94;;;-11.20;73.02
69980;BME280;57318;56.232;43.944;2023-02-19T00:21:13;98253.38;;;-11.20;72.82
69980;BME280;57318;56.232;43.944;2023-02-19T00:23:39;98254.28;;;-11.26;72.52
69980;BME280;57318;56.232;43.944;2023-02-19T00:26:09;98259.44;;;-11.29;72.30
69980;BME280;57318;56.232;43.944;2023-02-19T00:28:36;98255.25;;;-11.33;72.34
69980;BME280;57318;56.232;43.944;2023-02-19T00:31:19;98244.22;;;-11.41;72.26
69980;BME280;57318;56.232;43.944;2023-02-19T00:33:49;98245.97;;;-11.46;72.40
69980;BME280;57318;56.232;43.944;2023-02-19T00:36:15;98244.28;;;-11.47;72.06
69980;BME280;57318;56.232;43.944;2023-02-19T00:38:42;98240.91;;;-11.52;72.40
69980;BME280;57318;56.232;43.944;2023-02-19T00:41:08;98242.66;;;-11.54;72.55
69980;BME280;57318;56.232;43.944;2023-02-19T00:43:58;98237.53;;;-11.54;72.92
69980;BME280;57318;56.232;43.944;2023-02-19T00:46:44;98229.00;;;-11.56;72.96
69980;BME280;57318;56.232;43.944;2023-02-19T00:49:21;98223.97;;;-11.66;72.93
69980;BME280;57318;56.232;43.944;2023-02-19T00:51:50;98224.00;;;-11.69;72.83
69980;BME280;57318;56.232;43.944;2023-02-19T00:54:16;98214.63;;;-11.71;73.36
69980;BME280;57318;56.232;43.944;2023-02-19T00:56:42;98216.34;;;-11.72;73.43
69980;BME280;57318;56.232;43.944;2023-02-19T00:59:09;98209.53;;;-11.74;73.66
69980;BME280;57318;56.232;43.944;2023-02-19T01:01:34;98207.88;;;-11.78;73.93
69980;BME280;57318;56.232;43.944;2023-02-19T01:04:00;98209.56;;;-11.76;73.75
69980;BME280;57318;56.232;43.944;2023-02-19T01:06:25;98205.34;;;-11.82;74.12
69980;BME280;57318;56.232;43.944;2023-02-19T01:08:54;98205.38;;;-11.83;74.46
69980;BME280;57318;56.232;43.944;2023-02-19T01:11:19;98207.03;;;-11.81;74.30
69980;BME280;57318;56.232;43.944;2023-02-19T01:13:45;98207.94;;;-11.83;74.46
69980;BME280;57318;56.232;43.944;2023-02-19T01:16:15;98197.69;;;-11.83;74.79
69980;BME280;57318;56.232;43.944;2023-02-19T01:18:42;98185.75;;;-11.87;74.95
69980;BME280;57318;56.232;43.944;2023-02-19T01:21:11;98199.38;;;-11.84;75.13
69980;BME280;57318;56.232;43.944;2023-02-19T01:23:37;98194.22;;;-11.79;74.93
69980;BME280;57318;56.232;43.944;2023-02-19T01:26:08;98193.34;;;-11.78;74.65
69980;BME280;57318;56.232;43.944;2023-02-19T01:28:34;98184.81;;;-11.77;74.38
69980;BME280;57318;56.232;43.944;2023-02-19T01:31:04;98184.78;;;-11.74;74.32
69980;BME280;57318;56.232;43.944;2023-02-19T01:33:31;98187.31;;;-11.72;74.18
69980;BME280;57318;56.232;43.944;2023-02-19T01:35:57;98190.78;;;-11.78;73.45
69980;BME280;57318;56.232;43.944;2023-02-19T01:38:22;98178.03;;;-11.84;73.43
69980;BME280;57318;56.232;43.944;2023-02-19T01:43:21;98174.81;;;-11.99;73.45
69980;BME280;57318;56.232;43.944;2023-02-19T01:45:46;98177.41;;;-12.02;74.06
69980;BME280;57318;56.232;43.944;2023-02-19T01:48:24;98174.81;;;-11.99;74.10
69980;BME280;57318;56.232;43.944;2023-02-19T01:51:13;98179.94;;;-12.00;73.75
69980;BME280;57318;56.232;43.944;2023-02-19T01:53:51;98179.09;;;-11.98;73.57
69980;BME280;57318;56.232;43.944;2023-02-19T01:56:19;98167.22;;;-12.06;73.22
69980;BME280;57318;56.232;43.944;2023-02-19T01:58:45;98167.22;;;-12.09;73.32
69980;BME280;57318;56.232;43.944;2023-02-19T02:01:11;98171.56;;;-12.16;73.07
69980;BME280;57318;56.232;43.944;2023-02-19T02:03:39;98167.38;;;-12.26;72.78
69980;BME280;57318;56.232;43.944;2023-02-19T02:06:11;98169.16;;;-12.33;72.84
69980;BME280;57318;56.232;43.944;2023-02-19T02:08:40;98167.50;;;-12.39;73.09
69980;BME280;57318;56.232;43.944;2023-02-19T02:11:25;98168.41;;;-12.46;73.00
69980;BME280;57318;56.232;43.944;2023-02-19T02:13:52;98166.75;;;-12.50;73.13
69980;BME280;57318;56.232;43.944;2023-02-19T02:16:26;98169.38;;;-12.59;73.16
69980;BME280;57318;56.232;43.944;2023-02-19T02:21:44;98171.13;;;-12.64;73.16
69980;BME280;57318;56.232;43.944;2023-02-19T02:27:38;98169.44;;;-12.68;73.09
69980;BME280;57318;56.232;43.944;2023-02-19T02:33:19;98172.91;;;-12.77;73.34
69980;BME280;57318;56.232;43.944;2023-02-19T02:35:57;98175.44;;;-12.73;73.58
69980;BME280;57318;56.232;43.944;2023-02-19T02:38:27;98171.13;;;-12.67;73.25
69980;BME280;57318;56.232;43.944;2023-02-19T02:40:54;98166.84;;;-12.65;72.95
69980;BME280;57318;56.232;43.944;2023-02-19T02:43:21;98160.09;;;-12.69;72.81
69980;BME280;57318;56.232;43.944;2023-02-19T02:45:47;98168.59;;;-12.69;72.96
69980;BME280;57318;56.232;43.944;2023-02-19T02:53:51;98165.19;;;-12.68;72.72
69980;BME280;57318;56.232;43.944;2023-02-19T02:56:37;98160.09;;;-12.69;72.64
69980;BME280;57318;56.232;43.944;2023-02-19T02:59:07;98168.59;;;-12.71;72.57
69980;BME280;57318;56.232;43.944;2023-02-19T03:01:53;98159.28;;;-12.76;72.65
69980;BME280;57318;56.232;43.944;2023-02-19T03:10:12;98158.44;;;-12.78;72.61
69980;BME280;57318;56.232;43.944;2023-02-19T03:12:40;98154.22;;;-12.82;72.72
69980;BME280;57318;56.232;43.944;2023-02-19T03:15:33;98165.25;;;-12.77;72.72
69980;BME280;57318;56.232;43.944;2023-02-19T03:18:21;98151.63;;;-12.76;72.57
69980;BME280;57318;56.232;43.944;2023-02-19T03:21:07;98155.88;;;-12.80;72.42
69980;BME280;57318;56.232;43.944;2023-02-19T03:23:34;98149.91;;;-12.80;72.37
69980;BME280;57318;56.232;43.944;2023-02-19T03:26:20;98143.94;;;-12.76;71.92
69980;BME280;57318;56.232;43.944;2023-02-19T03:28:46;98150.75;;;-12.78;72.16
69980;BME280;57318;56.232;43.944;2023-02-19T03:31:32;98141.38;;;-12.76;71.37
69980;BME280;57318;56.232;43.944;2023-02-19T03:34:03;98144.00;;;-12.84;71.87
69980;BME280;57318;56.232;43.944;2023-02-19T03:36:35;98145.69;;;-12.88;71.62
69980;BME280;57318;56.232;43.944;2023-02-19T03:39:07;98144.88;;;-12.88;71.46
69980;BME280;57318;56.232;43.944;2023-02-19T03:44:45;98138.06;;;-12.92;71.17
69980;BME280;57318;56.232;43.944;2023-02-19T03:49:53;98147.53;;;-13.08;71.49
69980;BME280;57318;56.232;43.944;2023-02-19T03:52:41;98139.06;;;-13.15;71.57
69980;BME280;57318;56.232;43.944;2023-02-19T03:55:16;98135.69;;;-13.15;71.77
69980;BME280;57318;56.232;43.944;2023-02-19T03:57:59;98139.94;;;-13.19;71.54
69980;BME280;57318;56.232;43.944;2023-02-19T04:00:33;98139.97;;;-13.27;71.79
69980;BME280;57318;56.232;43.944;2023-02-19T04:05:31;98138.28;;;-13.26;71.47
69980;BME280;57318;56.232;43.944;2023-02-19T04:08:01;98134.03;;;-13.27;71.66
69980;BME280;57318;56.232;43.944;2023-02-19T04:10:29;98149.38;;;-13.29;71.46
69980;BME280;57318;56.232;43.944;2023-02-19T04:12:58;98141.72;;;-13.32;71.46
69980;BME280;57318;56.232;43.944;2023-02-19T04:15:29;98141.75;;;-13.35;71.48
69980;BME280;57318;56.232;43.944;2023-02-19T04:17:59;98136.66;;;-13.33;71.82
69980;BME280;57318;56.232;43.944;2023-02-19T04:20:33;98135.00;;;-13.40;71.79
69980;BME280;57318;56.232;43.944;2023-02-19T04:23:00;98137.53;;;-13.37;71.65
69980;BME280;57318;56.232;43.944;2023-02-19T04:25:28;98124.75;;;-13.34;71.64
69980;BME280;57318;56.232;43.944;2023-02-19T04:27:54;98138.31;;;-13.32;71.66
69980;BME280;57318;56.232;43.944;2023-02-19T04:30:20;98134.91;;;-13.31;71.61
69980;BME280;57318;56.232;43.944;2023-02-19T04:32:46;98135.75;;;-13.32;71.61
69980;BME280;57318;56.232;43.944;2023-02-19T04:35:12;98122.94;;;-13.25;71.73
69980;BME280;57318;56.232;43.944;2023-02-19T04:37:38;98131.47;;;-13.27;71.47
69980;BME280;57318;56.232;43.944;2023-02-19T04:40:04;98128.06;;;-13.23;71.62
69980;BME280;57318;56.232;43.944;2023-02-19T04:42:29;98123.75;;;-13.19;71.38
69980;BME280;57318;56.232;43.944;2023-02-19T04:44:55;98120.34;;;-13.15;71.19
69980;BME280;57318;56.232;43.944;2023-02-19T04:47:21;98121.19;;;-13.15;71.05
69980;BME280;57318;56.232;43.944;2023-02-19T04:49:46;98116.06;;;-13.15;71.13
69980;BME280;57318;56.232;43.944;2023-02-19T04:52:12;98116.88;;;-13.13;70.70
69980;BME280;57318;56.232;43.944;2023-02-19T04:54:37;98117.75;;;-13.11;70.68
69980;BME280;57318;56.232;43.944;2023-02-19T04:57:03;98108.34;;;-13.05;70.63
69980;BME280;57318;56.232;43.944;2023-02-19T04:59:29;98107.50;;;-13.04;71.01
69980;BME280;57318;56.232;43.944;2023-02-19T05:01:55;98115.97;;;-13.02;71.00
69980;BME280;57318;56.232;43.944;2023-02-19T05:04:22;98111.69;;;-12.99;70.88
69980;BME280;57318;56.232;43.944;2023-02-19T05:06:48;98109.94;;;-12.94;70.58
69980;BME280;57318;56.232;43.944;2023-02-19T05:09:14;98109.06;;;-12.88;70.62
69980;BME280;57318;56.232;43.944;2023-02-19T05:11:41;98103.88;;;-12.80;70.68
69980;BME280;57318;56.232;43.944;2023-02-19T05:14:07;98103.03;;;-12.78;70.29
69980;BME280;57318;56.232;43.944;2023-02-19T05:16:32;98106.41;;;-12.74;69.75
69980;BME280;57318;56.232;43.944;2023-02-19T05:18:58;98096.97;;;-12.71;69.63
69980;BME280;57318;56.232;43.944;2023-02-19T05:21:24;98108.03;;;-12.67;69.68
69980;BME280;57318;56.232;43.944;2023-02-19T05:23:50;98106.34;;;-12.68;69.66
69980;BME280;57318;56.232;43.944;2023-02-19T05:26:19;98107.19;;;-12.69;69.59
69980;BME280;57318;56.232;43.944;2023-02-19T05:28:47;98102.06;;;-12.69;69.55
69980;BME280;57318;56.232;43.944;2023-02-19T05:31:13;98101.22;;;-12.68;69.60
69980;BME280;57318;56.232;43.944;2023-02-19T05:33:39;98098.66;;;-12.65;69.49
69980;BME280;57318;56.232;43.944;2023-02-19T05:36:09;98094.47;;;-12.75;69.04
69980;BME280;57318;56.232;43.944;2023-02-19T05:38:36;98098.72;;;-12.73;69.50
69980;BME280;57318;56.232;43.944;2023-02-19T05:41:13;98106.31;;;-12.65;69.43
69980;BME280;57318;56.232;43.944;2023-02-19T05:43:40;98101.13;;;-12.54;69.57
69980;BME280;57318;56.232;43.944;2023-02-19T05:46:07;98103.56;;;-12.45;69.34
69980;BME280;57318;56.232;43.944;2023-02-19T05:48:33;98102.66;;;-12.38;69.14
69980;BME280;57318;56.232;43.944;2023-02-19T05:51:01;98104.25;;;-12.26;68.88
69980;BME280;57318;56.232;43.944;2023-02-19T05:53:27;98105.84;;;-12.16;68.52
69980;BME280;57318;56.232;43.944;2023-02-19T05:55:54;98101.44;;;-12.04;68.46
69980;BME280;57318;56.232;43.944;2023-02-19T05:58:19;98092.84;;;-11.99;67.82
69980;BME280;57318;56.232;43.944;2023-02-19T06:00:45;98096.97;;;-11.88;67.60
69980;BME280;57318;56.232;43.944;2023-02-19T06:03:11;98087.13;;;-11.52;67.15
69980;BME280;57318;56.232;43.944;2023-02-19T06:05:37;98084.81;;;-11.10;66.62
69980;BME280;57318;56.232;43.944;2023-02-19T06:08:03;98087.84;;;-10.33;65.03
69980;BME280;57318;56.232;43.944;2023-02-19T06:10:28;98092.31;;;-9.56;62.26
69980;BME280;57318;56.232;43.944;2023-02-19T06:12:54;98087.66;;;-8.99;60.64
69980;BME280;57318;56.232;43.944;2023-02-19T06:15:20;98094.72;;;-8.37;58.81
69980;BME280;57318;56.232;43.944;2023-02-19T06:17:46;98086.09;;;-7.72;57.15
69980;BME280;57318;56.232;43.944;2023-02-19T06:20:12;98079.75;;;-7.30;54.73
69980;BME280;57318;56.232;43.944;2023-02-19T06:22:37;98080.63;;;-7.03;53.54
69980;BME280;57318;56.232;43.944;2023-02-19T06:25:04;98086.94;;;-6.83;52.93
69980;BME280;57318;56.232;43.944;2023-02-19T06:27:32;98080.69;;;-6.24;51.80
69980;BME280;57318;56.232;43.944;2023-02-19T06:29:58;98078.34;;;-5.58;50.14
69980;BME280;57318;56.232;43.944;2023-02-19T06:32:24;98072.84;;;-4.81;48.38
69980;BME280;57318;56.232;43.944;2023-02-19T06:34:49;98063.28;;;-3.96;46.69
69980;BME280;57318;56.232;43.944;2023-02-19T06:37:15;98065.72;;;-3.33;44.95
69980;BME280;57318;56.232;43.944;2023-02-19T06:39:41;98070.28;;;-2.29;43.43
69980;BME280;57318;56.232;43.944;2023-02-19T06:42:08;98072.34;;;-1.67;42.04
69980;BME280;57318;56.232;43.944;2023-02-19T06:44:33;98067.34;;;-1.38;41.03
69980;BME280;57318;56.232;43.944;2023-02-19T06:46:59;98056.28;;;-0.78;39.74
69980;BME280;57318;56.232;43.944;2023-02-19T06:49:25;98054.47;;;-0.62;38.68
69980;BME280;57318;56.232;43.944;2023-02-19T06:51:50;98055.59;;;-1.46;38.71
69980;BME280;57318;56.232;43.944;2023-02-19T06:54:16;98057.72;;;-2.21;39.64
69980;BME280;57318;56.232;43.944;2023-02-19T06:56:42;98064.47;;;-2.34;40.07
69980;BME280;57318;56.232;43.944;2023-02-19T06:59:13;98066.81;;;-2.12;40.42
69980;BME280;57318;56.232;43.944;2023-02-19T07:01:41;98063.13;;;-2.08;40.02
69980;BME280;57318;56.232;43.944;2023-02-19T07:04:07;98059.91;;;-1.29;39.75
69980;BME280;57318;56.232;43.944;2023-02-19T07:06:34;98049.50;;;-0.66;38.61
69980;BME280;57318;56.232;43.944;2023-02-19T07:09:00;98048.94;;;-0.11;37.67
69980;BME280;57318;56.232;43.944;2023-02-19T07:11:28;98055.91;;;0.33;37.09
69980;BME280;57318;56.232;43.944;2023-02-19T07:13:55;98048.19;;;1.30;35.85
69980;BME280;57318;56.232;43.944;2023-02-19T07:16:21;98048.25;;;1.55;33.64
69980;BME280;57318;56.232;43.944;2023-02-19T07:18:47;98048.50;;;1.65;33.49
69980;BME280;57318;56.232;43.944;2023-02-19T07:21:14;98045.22;;;1.49;33.81
69980;BME280;57318;56.232;43.944;2023-02-19T07:23:41;98045.47;;;1.71;33.22
69980;BME280;57318;56.232;43.944;2023-02-19T07:26:11;98049.06;;;1.96;33.28
69980;BME280;57318;56.232;43.944;2023-02-19T07:28:39;98056.41;;;2.16;32.71
69980;BME280;57318;56.232;43.944;2023-02-19T07:31:05;98054.78;;;2.78;32.22
69980;BME280;57318;56.232;43.944;2023-02-19T07:33:31;98035.19;;;3.21;31.14
69980;BME280;57318;56.232;43.944;2023-02-19T07:35:56;98046.06;;;3.28;30.98
69980;BME280;57318;56.232;43.944;2023-02-19T07:38:24;98043.41;;;3.76;30.71
69980;BME280;57318;56.232;43.944;2023-02-19T07:43:17;98047.03;;;4.67;29.04
69980;BME280;57318;56.232;43.944;2023-02-19T07:45:43;98044.25;;;4.57;28.65
69980;BME280;57318;56.232;43.944;2023-02-19T07:48:08;98048.28;;;5.06;28.79
69980;BME280;57318;56.232;43.944;2023-02-19T07:50:34;98051.91;;;5.49;28.06
69980;BME280;57318;56.232;43.944;2023-02-19T07:53:00;98048.78;;;5.76;27.77
69980;BME280;57318;56.232;43.944;2023-02-19T07:55:25;98046.63;;;6.24;27.29
69980;BME280;57318;56.232;43.944;2023-02-19T07:57:51;98043.31;;;6.22;26.84
69980;BME280;57318;56.232;43.944;2023-02-19T08:00:16;98031.31;;;6.39;27.02
69980;BME280;57318;56.232;43.944;2023-02-19T08:02:45;98039.69;;;6.75;26.49
69980;BME280;57318;56.232;43.944;2023-02-19T08:05:27;98038.88;;;6.84;26.02
69980;BME280;57318;56.232;43.944;2023-02-19T08:07:53;98041.78;;;7.51;25.79
69980;BME280;57318;56.232;43.944;2023-02-19T08:10:18;98026.22;;;7.77;25.35
69980;BME280;57318;56.232;43.944;2023-02-19T08:13:03;98031.78;;;7.54;25.08
69980;BME280;57318;56.232;43.944;2023-02-19T08:15:46;98028.16;;;7.94;24.54
69980;BME280;57318;56.232;43.944;2023-02-19T08:18:13;98028.16;;;7.55;24.82
69980;BME280;57318;56.232;43.944;2023-02-19T08:20:40;98021.50;;;7.71;24.65
69980;BME280;57318;56.232;43.944;2023-02-19T08:23:07;98014.13;;;7.65;24.59
69980;BME280;57318;56.232;43.944;2023-02-19T08:25:33;98017.44;;;7.76;24.43
69980;BME280;57318;56.232;43.944;2023-02-19T08:27:59;98022.16;;;7.83;24.57
69980;BME280;57318;56.232;43.944;2023-02-19T08:30:25;98011.72;;;7.81;24.20
69980;BME280;57318;56.232;43.944;2023-02-19T08:32:51;98013.34;;;8.21;24.05
69980;BME280;57318;56.232;43.944;2023-02-19T08:35:17;98006.56;;;8.94;23.50
69980;BME280;57318;56.232;43.944;2023-02-19T08:37:43;98018.47;;;8.80;23.26
69980;BME280;57318;56.232;43.944;2023-02-19T08:40:10;98017.13;;;8.66;23.40
69980;BME280;57318;56.232;43.944;2023-02-19T08:42:35;98008.22;;;8.67;23.38
69980;BME280;57318;56.232;43.944;2023-02-19T08:45:01;98005.31;;;8.60;23.44
69980;BME280;57318;56.232;43.944;2023-02-19T08:47:29;98008.75;;;8.71;23.34
69980;BME280;57318;56.232;43.944;2023-02-19T08:49:54;98015.63;;;8.91;23.15
69980;BME280;57318;56.232;43.944;2023-02-19T08:52:20;98007.97;;;8.88;22.83
69980;BME280;57318;56.232;43.944;2023-02-19T08:54:45;97999.69;;;8.73;23.17
69980;BME280;57318;56.232;43.944;2023-02-19T08:57:11;97997.28;;;8.52;23.30
69980;BME280;57318;56.232;43.944;2023-02-19T08:59:36;98004.25;;;8.81;23.37
69980;BME280;57318;56.232;43.944;2023-02-19T09:02:02;97998.75;;;8.92;23.47
69980;BME280;57318;56.232;43.944;2023-02-19T09:04:28;98000.56;;;9.37;22.86
69980;BME280;57318;56.232;43.944;2023-02-19T09:06:53;97997.25;;;9.98;22.20
69980;BME280;57318;56.232;43.944;2023-02-19T09:09:19;97995.91;;;10.20;22.22
69980;BME280;57318;56.232;43.944;2023-02-19T09:11:44;97996.94;;;10.45;21.61
69980;BME280;57318;56.232;43.944;2023-02-19T09:14:10;97997.13;;;10.25;21.80
69980;BME280;57318;56.232;43.944;2023-02-19T09:16:36;97993.31;;;10.54;21.67
69980;BME280;57318;56.232;43.944;2023-02-19T09:19:02;97989.13;;;10.78;21.44
69980;BME280;57318;56.232;43.944;2023-02-19T09:21:28;97986.22;;;11.06;21.12
69980;BME280;57318;56.232;43.944;2023-02-19T09:23:54;97980.31;;;11.36;21.06
69980;BME280;57318;56.232;43.944;2023-02-19T09:26:19;97974.72;;;10.89;20.80
69980;BME280;57318;56.232;43.944;2023-02-19T09:28:45;97977.91;;;11.00;21.31
69980;BME280;57318;56.232;43.944;2023-02-19T09:31:13;97975.13;;;11.27;21.09
69980;BME280;57318;56.232;43.944;2023-02-19T09:33:46;97975.84;;;10.86;20.45
69980;BME280;57318;56.232;43.944;2023-02-19T09:36:14;97974.09;;;11.03;20.99
69980;BME280;57318;56.232;43.944;2023-02-19T09:38:40;97971.56;;;10.93;20.95
69980;BME280;57318;56.232;43.944;2023-02-19T09:41:11;97975.66;;;10.79;21.59
69980;BME280;57318;56.232;43.944;2023-02-19T09:43:38;97968.13;;;11.01;20.97
69980;BME280;57318;56.232;43.944;2023-02-19T09:48:47;97966.63;;;10.64;20.79
69980;BME280;57318;56.232;43.944;2023-02-19T09:51:13;97959.97;;;10.52;21.48
69980;BME280;57318;56.232;43.944;2023-02-19T09:53:43;97963.28;;;10.54;21.16
69980;BME280;57318;56.232;43.944;2023-02-19T09:56:10;97962.09;;;10.22;21.77
69980;BME280;57318;56.232;43.944;2023-02-19T09:58:48;97956.59;;;9.89;21.86
69980;BME280;57318;56.232;43.944;2023-02-19T10:01:15;97953.94;;;9.89;21.73
69980;BME280;57318;56.232;43.944;2023-02-19T10:03:47;97957.75;;;9.68;22.07
69980;BME280;57318;56.232;43.944;2023-02-19T10:06:20;97958.84;;;9.84;21.79
69980;BME280;57318;56.232;43.944;2023-02-19T10:08:49;97951.97;;;9.73;21.93
69980;BME280;57318;56.232;43.944;2023-02-19T10:11:16;97949.09;;;9.84;22.08
69980;BME280;57318;56.232;43.944;2023-02-19T10:14:00;97950.16;;;10.00;21.51
69980;BME280;57318;56.232;43.944;2023-02-19T10:16:28;97941.63;;;9.26;22.48
69980;BME280;57318;56.232;43.944;2023-02-19T10:18:54;97944.28;;;9.88;22.30
69980;BME280;57318;56.232;43.944;2023-02-19T10:21:23;97942.06;;;9.57;22.09
69980;BME280;57318;56.232;43.944;2023-02-19T10:23:54;97940.16;;;9.49;22.07
69980;BME280;57318;56.232;43.944;2023-02-19T10:26:22;97937.16;;;9.08;22.39
69980;BME280;57318;56.232;43.944;2023-02-19T10:28:48;97936.91;;;8.18;23.35
69980;BME280;57318;56.232;43.944;2023-02-19T10:31:21;97942.19;;;7.41;24.19
69980;BME280;57318;56.232;43.944;2023-02-19T10:33:52;97934.13;;;7.23;24.44
69980;BME280;57318;56.232;43.944;2023-02-19T10:36:35;97935.97;;;7.33;24.35
69980;BME280;57318;56.232;43.944;2023-02-19T10:39:07;97932.09;;;8.31;23.60
69980;BME280;57318;56.232;43.944;2023-02-19T10:41:42;97923.44;;;8.49;23.28
69980;BME280;57318;56.232;43.944;2023-02-19T10:44:17;97931.13;;;8.32;23.32
69980;BME280;57318;56.232;43.944;2023-02-19T10:46:48;97919.38;;;8.07;23.35
69980;BME280;57318;56.232;43.944;2023-02-19T10:51:51;97927.03;;;8.10;23.61
69980;BME280;57318;56.232;43.944;2023-02-19T10:54:29;97919.50;;;7.68;24.09
69980;BME280;57318;56.232;43.944;2023-02-19T10:57:23;97911.59;;;7.19;24.79
69980;BME280;57318;56.232;43.944;2023-02-19T11:00:16;97902.34;;;6.45;25.46
69980;BME280;57318;56.232;43.944;2023-02-19T11:02:44;97913.38;;;6.20;25.62
69980;BME280;57318;56.232;43.944;2023-02-19T11:07:55;97906.16;;;5.49;26.87
69980;BME280;57318;56.232;43.944;2023-02-19T11:12:50;97896.72;;;5.25;27.04
69980;BME280;57318;56.232;43.944;2023-02-19T11:15:24;97890.84;;;5.64;26.56
69980;BME280;57318;56.232;43.944;2023-02-19T11:18:03;97893.59;;;6.04;26.43
69980;BME280;57318;56.232;43.944;2023-02-19T11:20:29;97892.31;;;6.39;25.79
69980;BME280;57318;56.232;43.944;2023-02-19T11:23:00;97888.09;;;6.27;25.71
69980;BME280;57318;56.232;43.944;2023-02-19T11:25:28;97885.63;;;6.95;25.46
69980;BME280;57318;56.232;43.944;2023-02-19T11:30:43;97885.69;;;7.62;24.25
69980;BME280;57318;56.232;43.944;2023-02-19T11:38:42;97889.78;;;7.17;24.56
69980;BME280;57318;56.232;43.944;2023-02-19T11:44:34;97891.16;;;5.70;26.07
69980;BME280;57318;56.232;43.944;2023-02-19T12:01:03;97884.28;;;4.40;27.67
69980;BME280;57318;56.232;43.944;2023-02-19T12:17:45;97886.69;;;1.83;31.00
69980;BME280;57318;56.232;43.944;2023-02-19T12:43:08;97891.03;;;-2.51;38.92
69980;BME280;57318;56.232;43.944;2023-02-19T12:56:35;97893.66;;;-3.21;39.86
69980;BME280;57318;56.232;43.944;2023-02-19T13:01:54;97889.38;;;-4.14;42.07
69980;BME280;57318;56.232;43.944;2023-02-19T13:07:00;97892.72;;;-5.12;44.04
69980;BME280;57318;56.232;43.944;2023-02-19T13:09:47;97890.63;;;-5.67;45.55
69980;BME280;57318;56.232;43.944;2023-02-19T13:12:39;97900.53;;;-6.22;46.93
69980;BME280;57318;56.232;43.944;2023-02-19T13:15:24;97889.75;;;-6.59;48.00
69980;BME280;57318;56.232;43.944;2023-02-19T13:17:54;97893.69;;;-6.72;48.76
69980;BME280;57318;56.232;43.944;2023-02-19T13:20:52;97898.13;;;-7.01;49.36
69980;BME280;57318;56.232;43.944;2023-02-19T13:23:26;97886.00;;;-7.24;50.01
69980;BME280;57318;56.232;43.944;2023-02-19T13:26:34;97877.44;;;-7.51;51.34
69980;BME280;57318;56.232;43.944;2023-02-19T13:32:09;97881.53;;;-8.01;52.68
69980;BME280;57318;56.232;43.944;2023-02-19T13:35:19;97869.38;;;-8.25;53.50
69980;BME280;57318;56.232;43.944;2023-02-19T13:37:40;97877.94;;;-8.53;54.68
69980;BME280;57318;56.232;43.944;2023-02-19T13:42:54;97871.97;;;-8.86;56.18
69980;BME280;57318;56.232;43.944;2023-02-19T13:50:33;97872.22;;;-9.27;57.68
69980;BME280;57318;56.232;43.944;2023-02-19T13:53:00;97867.53;;;-9.46;58.37
69980;BME280;57318;56.232;43.944;2023-02-19T14:01:12;97886.22;;;-9.75;60.12
69980;BME280;57318;56.232;43.944;2023-02-19T14:04:05;97894.03;;;-9.80;60.09
69980;BME280;57318;56.232;43.944;2023-02-19T14:14:41;97876.69;;;-10.07;61.76
69980;BME280;57318;56.232;43.944;2023-02-19T14:30:31;97873.16;;;-10.42;63.86
69980;BME280;57318;56.232;43.944;2023-02-19T14:32:59;97861.31;;;-10.46;64.10
69980;BME280;57318;56.232;43.944;2023-02-19T14:35:33;97875.91;;;-10.50;64.45
69980;BME280;57318;56.232;43.944;2023-02-19T14:38:01;97875.19;;;-10.57;64.74
69980;BME280;57318;56.232;43.944;2023-02-19T14:40:38;97878.72;;;-10.61;64.75
69980;BME280;57318;56.232;43.944;2023-02-19T14:43:15;97879.59;;;-10.63;64.96
69980;BME280;57318;56.232;43.944;2023-02-19T14:45:47;97874.50;;;-10.65;64.86
69980;BME280;57318;56.232;43.944;2023-02-19T14:48:34;97883.16;;;-10.71;65.40
69980;BME280;57318;56.232;43.944;2023-02-19T14:51:07;97884.16;;;-10.76;65.35
69980;BME280;57318;56.232;43.944;2023-02-19T14:53:38;97883.25;;;-10.75;65.54
69980;BME280;57318;56.232;43.944;2023-02-19T14:56:06;97874.78;;;-10.79;65.68
69980;BME280;57318;56.232;43.944;2023-02-19T14:58:42;97879.03;;;-10.78;65.62
69980;BME280;57318;56.232;43.944;2023-02-19T15:01:24;97862.91;;;-10.83;65.58
69980;BME280;57318;56.232;43.944;2023-02-19T15:03:53;97872.28;;;-10.83;65.85
69980;BME280;57318;56.232;43.944;2023-02-19T15:06:18;97868.97;;;-10.89;65.91
69980;BME280;57318;56.232;43.944;2023-02-19T15:08:48;97873.31;;;-10.91;66.32
69980;BME280;57318;56.232;43.944;2023-02-19T15:11:19;97876.75;;;-10.93;66.00
69980;BME280;57318;56.232;43.944;2023-02-19T15:13:57;97875.94;;;-10.94;66.16
69980;BME280;57318;56.232;43.944;2023-02-19T15:16:26;97878.59;;;-10.98;66.28
69980;BME280;57318;56.232;43.944;2023-02-19T15:18:54;97882.00;;;-10.99;66.34
69980;BME280;57318;56.232;43.944;2023-02-19T15:21:30;97882.06;;;-11.02;66.50
69980;BME280;57318;56.232;43.944;2023-02-19T15:24:00;97876.94;;;-11.02;66.19
69980;BME280;57318;56.232;43.944;2023-02-19T15:26:33;97885.53;;;-11.05;66.81
69980;BME280;57318;56.232;43.944;2023-02-19T15:29:08;97884.72;;;-11.07;66.45
69980;BME280;57318;56.232;43.944;2023-02-19T15:31:34;97880.50;;;-11.10;66.54
69980;BME280;57318;56.232;43.944;2023-02-19T15:34:00;97874.56;;;-11.13;66.50
69980;BME280;57318;56.232;43.944;2023-02-19T15:36:29;97879.81;;;-11.21;67.28
69980;BME280;57318;56.232;43.944;2023-02-19T15:38:59;97881.59;;;-11.23;67.11
69980;BME280;57318;56.232;43.944;2023-02-19T15:41:32;97876.50;;;-11.26;67.15
69980;BME280;57318;56.232;43.944;2023-02-19T15:44:16;97866.22;;;-11.25;66.67